createdAt,value
2018-02-23T00:00:13.334Z,0.20
2018-02-23T00:02:40.790Z,0.20
2018-02-23T00:05:08.256Z,0.20
2018-02-23T00:07:47.571Z,0.20
2018-02-23T00:10:15.022Z,0.10
2018-02-23T00:12:43.229Z,0.20
2018-02-23T00:15:10.665Z,0.20
2018-02-23T00:17:38.113Z,0.20
2018-02-23T00:20:05.550Z,0.10
2018-02-23T00:22:40.826Z,0.00
2018-02-23T00:25:09.061Z,0.00
2018-02-23T00:27:36.516Z,0.10
2018-02-23T00:30:03.998Z,0.10
2018-02-23T00:32:31.442Z,0.00
2018-02-23T00:34:58.895Z,0.00
2018-02-23T00:37:26.343Z,0.00
2018-02-23T00:39:53.803Z,0.00
2018-02-23T00:42:21.267Z,-0.10
2018-02-23T00:44:48.697Z,0.00
2018-02-23T00:47:16.951Z,-0.10
2018-02-23T00:49:44.404Z,0.00
2018-02-23T00:52:11.856Z,0.00
2018-02-23T00:54:39.318Z,0.00
2018-02-23T00:57:06.757Z,-0.20
2018-02-23T00:59:34.205Z,-0.10
2018-02-23T01:02:02.409Z,-0.10
2018-02-23T01:04:29.868Z,-0.10
2018-02-23T01:06:57.315Z,-0.10
2018-02-23T01:09:25.552Z,-0.10
2018-02-23T01:11:52.994Z,-0.10
2018-02-23T01:14:20.433Z,-0.10
2018-02-23T01:16:47.895Z,-0.20
2018-02-23T01:19:15.357Z,-0.20
2018-02-23T01:21:42.818Z,-0.20
2018-02-23T01:24:10.272Z,-0.30
2018-02-23T01:26:37.711Z,-0.20
2018-02-23T01:29:05.939Z,-0.20
2018-02-23T01:31:33.393Z,-0.20
2018-02-23T01:34:00.832Z,-0.30
2018-02-23T01:36:28.282Z,-0.20
2018-02-23T01:38:56.527Z,-0.20
2018-02-23T01:41:24.735Z,-0.20
2018-02-23T01:43:52.185Z,-0.20
2018-02-23T01:46:19.644Z,-0.20
2018-02-23T01:48:47.095Z,-0.30
2018-02-23T01:51:14.544Z,-0.30
2018-02-23T01:53:42.004Z,-0.30
2018-02-23T01:56:09.451Z,-0.30
2018-02-23T01:58:36.967Z,-0.20
2018-02-23T02:01:04.414Z,-0.20
2018-02-23T02:03:31.874Z,-0.30
2018-02-23T02:05:59.340Z,-0.30
2018-02-23T02:08:26.796Z,-0.30
2018-02-23T02:10:54.248Z,-0.30
2018-02-23T02:13:21.704Z,-0.30
2018-02-23T02:15:49.197Z,-0.30
2018-02-23T02:18:16.638Z,-0.30
2018-02-23T02:20:44.096Z,-0.40
2018-02-23T02:23:11.538Z,-0.40
2018-02-23T02:25:38.981Z,-0.40
2018-02-23T02:28:07.194Z,-0.30
2018-02-23T02:30:34.654Z,-0.40
2018-02-23T02:33:02.101Z,-0.40
2018-02-23T02:35:29.568Z,-0.40
2018-02-23T02:37:57.019Z,-0.40
2018-02-23T02:40:24.491Z,-0.40
2018-02-23T02:42:51.970Z,-0.40
2018-02-23T02:45:19.426Z,-0.50
2018-02-23T02:47:46.882Z,-0.50
2018-02-23T02:50:14.386Z,-0.50
2018-02-23T02:52:41.840Z,-0.50
2018-02-23T02:55:09.280Z,-0.60
2018-02-23T02:57:37.489Z,-0.50
2018-02-23T03:00:04.938Z,-0.60
2018-02-23T03:02:32.378Z,-0.60
2018-02-23T03:04:59.825Z,-0.50
2018-02-23T03:07:27.287Z,-0.60
2018-02-23T03:09:55.485Z,-0.60
2018-02-23T03:12:22.929Z,-0.60
2018-02-23T03:14:50.390Z,-0.60
2018-02-23T03:17:17.842Z,-0.70
2018-02-23T03:19:46.063Z,-0.60
2018-02-23T03:22:13.520Z,-0.60
2018-02-23T03:24:41.003Z,-0.60
2018-02-23T03:27:08.459Z,-0.60
2018-02-23T03:29:35.897Z,-0.60
2018-02-23T03:32:03.347Z,-0.60
2018-02-23T03:34:30.781Z,-0.60
2018-02-23T03:36:58.222Z,-0.70
2018-02-23T03:39:25.670Z,-0.70
2018-02-23T03:41:53.135Z,-0.70
2018-02-23T03:44:20.588Z,-0.70
2018-02-23T03:46:48.079Z,-0.80
2018-02-23T03:49:15.513Z,-0.70
2018-02-23T03:51:42.972Z,-0.70
2018-02-23T03:54:10.410Z,-0.70
2018-02-23T03:56:37.879Z,-0.70
2018-02-23T03:59:06.083Z,-0.80
2018-02-23T04:01:33.546Z,-0.80
2018-02-23T04:04:01.002Z,-0.70
2018-02-23T04:06:28.435Z,-0.70
2018-02-23T04:08:56.659Z,-0.70
2018-02-23T04:11:24.093Z,-0.70
2018-02-23T04:13:51.533Z,-0.80
2018-02-23T04:16:19.757Z,-0.70
2018-02-23T04:18:47.231Z,-0.80
2018-02-23T04:21:14.717Z,-0.80
2018-02-23T04:23:42.150Z,-0.70
2018-02-23T04:26:09.580Z,-0.80
2018-02-23T04:28:37.091Z,-0.80
2018-02-23T04:31:05.251Z,-0.80
2018-02-23T04:33:32.702Z,-0.80
2018-02-23T04:36:00.192Z,-0.80
2018-02-23T04:38:27.626Z,-0.80
2018-02-23T04:40:55.079Z,-0.80
2018-02-23T04:43:23.390Z,-0.90
2018-02-23T04:45:50.839Z,-0.90
2018-02-23T04:48:19.200Z,-0.80
2018-02-23T04:50:46.660Z,-1.00
2018-02-23T04:53:14.117Z,-1.00
2018-02-23T04:55:41.562Z,-0.90
2018-02-23T04:58:09.774Z,-0.90
2018-02-23T05:00:37.259Z,-0.90
2018-02-23T05:03:04.698Z,-0.90
2018-02-23T05:05:32.181Z,-0.80
2018-02-23T05:07:59.625Z,-0.90
2018-02-23T05:10:27.066Z,-1.00
2018-02-23T05:12:55.269Z,-1.00
2018-02-23T05:15:22.713Z,-1.00
2018-02-23T05:17:50.966Z,-1.00
2018-02-23T05:20:18.448Z,-1.00
2018-02-23T05:22:46.654Z,-0.90
2018-02-23T05:25:14.130Z,-0.90
2018-02-23T05:27:41.579Z,-0.90
2018-02-23T05:30:09.039Z,-0.90
2018-02-23T05:32:36.511Z,-0.90
2018-02-23T05:35:03.954Z,-0.90
2018-02-23T05:37:31.404Z,-1.00
2018-02-23T05:39:59.633Z,-1.00
2018-02-23T05:42:27.070Z,-1.00
2018-02-23T05:44:54.529Z,-1.00
2018-02-23T05:47:21.998Z,-1.00
2018-02-23T05:49:49.459Z,-1.00
2018-02-23T05:52:16.908Z,-1.00
2018-02-23T05:54:44.366Z,-1.10
2018-02-23T05:57:11.850Z,-1.00
2018-02-23T05:59:40.035Z,-1.10
2018-02-23T06:02:07.506Z,-1.10
2018-02-23T06:04:34.958Z,-1.20
2018-02-23T06:07:02.389Z,-1.30
2018-02-23T06:09:30.621Z,-1.20
2018-02-23T06:11:58.873Z,-1.30
2018-02-23T06:14:26.335Z,-1.30
2018-02-23T06:16:53.805Z,-1.30
2018-02-23T06:19:27.051Z,-1.30
2018-02-23T06:21:54.476Z,-1.20
2018-02-23T06:24:21.935Z,-1.20
2018-02-23T06:26:49.387Z,-1.20
2018-02-23T06:29:16.845Z,-1.10
2018-02-23T06:31:44.298Z,-1.10
2018-02-23T06:34:11.755Z,-1.10
2018-02-23T06:36:39.219Z,-1.10
2018-02-23T06:39:07.426Z,-1.10
2018-02-23T06:41:34.897Z,-1.10
2018-02-23T06:44:02.355Z,-1.10
2018-02-23T06:46:29.802Z,-1.10
2018-02-23T06:48:57.265Z,-1.10
2018-02-23T06:51:24.728Z,-1.10
2018-02-23T06:53:52.224Z,-1.00
2018-02-23T06:56:20.395Z,-1.10
2018-02-23T06:58:47.860Z,-1.10
2018-02-23T07:01:15.330Z,-1.10
2018-02-23T07:03:42.793Z,-1.10
2018-02-23T07:06:10.267Z,-1.10
2018-02-23T07:08:37.722Z,-1.00
2018-02-23T07:11:05.171Z,-1.00
2018-02-23T07:13:33.427Z,-1.00
2018-02-23T07:16:00.895Z,-1.00
2018-02-23T07:18:28.361Z,-1.00
2018-02-23T07:20:55.822Z,-1.10
2018-02-23T07:23:24.065Z,-1.00
2018-02-23T07:25:52.286Z,-1.00
2018-02-23T07:28:19.760Z,-1.00
2018-02-23T07:30:47.205Z,-1.00
2018-02-23T07:33:14.671Z,-1.00
2018-02-23T07:35:42.125Z,-1.10
2018-02-23T07:38:09.589Z,-1.00
2018-02-23T07:40:37.060Z,-1.00
2018-02-23T07:43:04.521Z,-1.00
2018-02-23T07:45:31.983Z,-1.00
2018-02-23T07:47:59.443Z,-1.00
2018-02-23T07:50:26.916Z,-1.00
2018-02-23T07:52:54.372Z,-1.00
2018-02-23T07:55:21.850Z,-1.00
2018-02-23T07:57:49.304Z,-1.00
2018-02-23T08:00:16.785Z,-0.90
2018-02-23T08:02:44.243Z,-1.00
2018-02-23T08:05:11.714Z,-0.90
2018-02-23T08:07:39.187Z,-0.90
2018-02-23T08:10:06.658Z,-0.90
2018-02-23T08:12:34.118Z,-0.80
2018-02-23T08:15:01.596Z,-0.80
2018-02-23T08:17:29.838Z,-0.80
2018-02-23T08:19:57.331Z,-0.80
2018-02-23T08:22:24.806Z,-0.70
2018-02-23T08:24:52.263Z,-0.70
2018-02-23T08:27:19.719Z,-0.70
2018-02-23T08:29:47.178Z,-0.70
2018-02-23T08:32:14.633Z,-0.70
2018-02-23T08:34:42.087Z,-0.70
2018-02-23T08:37:09.565Z,-0.60
2018-02-23T08:39:37.803Z,-0.50
2018-02-23T08:42:05.280Z,-0.50
2018-02-23T08:44:33.506Z,-0.40
2018-02-23T08:47:01.735Z,-0.40
2018-02-23T08:49:29.239Z,-0.40
2018-02-23T08:51:56.705Z,-0.50
2018-02-23T08:54:24.183Z,-0.40
2018-02-23T08:56:51.666Z,-0.30
2018-02-23T08:59:19.130Z,0.00
2018-02-23T09:04:20.509Z,0.20
2018-02-23T09:06:47.969Z,0.20
2018-02-23T09:09:15.436Z,0.90
2018-02-23T09:11:42.894Z,0.90
2018-02-23T09:14:10.354Z,1.30
2018-02-23T09:16:37.801Z,2.00
2018-02-23T09:19:06.018Z,2.30
2018-02-23T09:21:33.547Z,2.20
2018-02-23T09:24:00.941Z,2.40
2018-02-23T09:26:28.399Z,2.70
2018-02-23T09:28:55.842Z,2.60
2018-02-23T09:31:23.289Z,2.40
2018-02-23T09:34:03.465Z,2.20
2018-02-23T09:36:31.703Z,2.00
2018-02-23T09:38:59.938Z,2.00
2018-02-23T09:41:27.402Z,2.00
2018-02-23T09:43:54.843Z,2.20
2018-02-23T09:46:22.299Z,2.40
2018-02-23T09:48:49.741Z,2.40
2018-02-23T09:51:17.975Z,2.30
2018-02-23T09:53:45.435Z,2.30
2018-02-23T09:56:12.894Z,2.10
2018-02-23T09:58:40.350Z,2.00
2018-02-23T10:03:42.409Z,1.90
2018-02-23T10:06:10.651Z,2.10
2018-02-23T10:08:38.110Z,2.10
2018-02-23T10:11:05.574Z,2.00
2018-02-23T10:13:33.022Z,2.10
2018-02-23T10:16:00.476Z,2.20
2018-02-23T10:18:27.946Z,2.10
2018-02-23T10:20:55.411Z,2.10
2018-02-23T10:23:22.864Z,2.30
2018-02-23T10:25:50.328Z,2.40
2018-02-23T10:28:17.808Z,2.50
2018-02-23T10:30:45.245Z,2.50
2018-02-23T10:33:12.711Z,2.20
2018-02-23T10:35:40.170Z,2.20
2018-02-23T10:38:07.651Z,2.50
2018-02-23T10:40:35.133Z,2.10
2018-02-23T10:43:02.586Z,2.50
2018-02-23T10:45:30.018Z,2.50
2018-02-23T10:47:57.462Z,2.60
2018-02-23T10:50:25.746Z,2.60
2018-02-23T10:52:53.198Z,2.60
2018-02-23T10:55:21.440Z,2.60
2018-02-23T10:57:48.886Z,2.60
2018-02-23T11:00:16.326Z,2.60
2018-02-23T11:02:43.800Z,2.60
2018-02-23T11:05:11.280Z,2.60
2018-02-23T11:07:38.762Z,2.20
2018-02-23T11:10:06.219Z,2.10
2018-02-23T11:12:33.688Z,1.80
2018-02-23T11:15:01.141Z,1.60
2018-02-23T11:17:28.577Z,1.50
2018-02-23T11:19:56.039Z,1.50
2018-02-23T11:22:23.506Z,1.40
2018-02-23T11:24:50.959Z,1.40
2018-02-23T11:27:18.427Z,1.60
2018-02-23T11:29:45.882Z,1.90
2018-02-23T11:32:13.359Z,2.10
2018-02-23T11:34:40.819Z,1.80
2018-02-23T11:37:08.289Z,1.90
2018-02-23T11:39:35.760Z,1.80
2018-02-23T11:42:03.207Z,1.90
2018-02-23T11:44:30.665Z,2.00
2018-02-23T11:46:58.168Z,2.00
2018-02-23T11:49:25.653Z,2.10
2018-02-23T11:51:53.100Z,2.20
2018-02-23T11:54:20.540Z,2.40
2018-02-23T11:56:47.995Z,2.60
2018-02-23T11:59:16.201Z,3.10
2018-02-23T12:01:43.653Z,3.00
2018-02-23T12:04:11.136Z,2.60
2018-02-23T12:06:38.586Z,2.60
2018-02-23T12:09:06.051Z,2.70
2018-02-23T12:11:33.503Z,2.70
2018-02-23T12:14:00.968Z,2.70
2018-02-23T12:16:28.412Z,2.80
2018-02-23T12:18:55.866Z,2.50
2018-02-23T12:21:23.383Z,2.50
2018-02-23T12:23:50.775Z,2.60
2018-02-23T12:26:18.254Z,2.40
2018-02-23T12:28:45.724Z,2.30
2018-02-23T12:31:13.243Z,2.30
2018-02-23T12:33:41.472Z,2.50
2018-02-23T12:36:08.932Z,2.50
2018-02-23T12:38:36.397Z,2.50
2018-02-23T12:41:03.835Z,2.40
2018-02-23T12:43:31.304Z,2.60
2018-02-23T12:45:58.780Z,2.60
2018-02-23T12:48:26.253Z,2.40
2018-02-23T12:50:53.751Z,2.30
2018-02-23T12:53:21.978Z,2.20
2018-02-23T12:55:49.430Z,2.20
2018-02-23T12:58:16.934Z,2.30
2018-02-23T13:00:44.408Z,2.20
2018-02-23T13:03:11.862Z,2.20
2018-02-23T13:05:39.327Z,2.20
2018-02-23T13:08:07.530Z,2.20
2018-02-23T13:10:35.749Z,2.20
2018-02-23T13:13:03.185Z,2.20
2018-02-23T13:15:31.427Z,2.10
2018-02-23T13:17:58.920Z,2.10
2018-02-23T13:20:27.348Z,2.20
2018-02-23T13:22:54.784Z,2.20
2018-02-23T13:25:22.237Z,2.20
2018-02-23T13:27:56.190Z,2.20
2018-02-23T13:30:23.652Z,2.20
2018-02-23T13:32:51.114Z,2.20
2018-02-23T13:35:18.561Z,2.10
2018-02-23T13:37:46.022Z,2.20
2018-02-23T13:40:13.474Z,2.20
2018-02-23T13:42:40.922Z,2.20
2018-02-23T13:45:09.150Z,2.20
2018-02-23T13:47:37.386Z,2.20
2018-02-23T13:50:05.611Z,2.20
2018-02-23T13:52:33.071Z,2.20
2018-02-23T13:55:00.540Z,2.30
2018-02-23T13:57:27.992Z,2.20
2018-02-23T13:59:55.437Z,2.20
2018-02-23T14:02:22.895Z,2.20
2018-02-23T14:04:50.353Z,2.20
2018-02-23T14:07:23.425Z,2.20
2018-02-23T14:09:51.628Z,2.20
2018-02-23T14:12:19.074Z,2.20
2018-02-23T14:14:47.288Z,2.30
2018-02-23T14:17:14.742Z,2.20
2018-02-23T14:19:42.212Z,2.20
2018-02-23T14:22:09.663Z,2.20
2018-02-23T14:24:37.100Z,2.20
2018-02-23T14:27:05.339Z,2.30
2018-02-23T14:29:32.805Z,2.30
2018-02-23T14:32:00.277Z,2.20
2018-02-23T14:34:27.866Z,2.20
2018-02-23T14:36:56.071Z,2.20
2018-02-23T14:39:23.526Z,2.20
2018-02-23T14:41:50.974Z,2.20
2018-02-23T14:44:19.203Z,2.30
2018-02-23T14:46:46.642Z,2.20
2018-02-23T14:49:19.734Z,2.30
2018-02-23T14:51:47.177Z,2.20
2018-02-23T14:54:14.645Z,2.20
2018-02-23T14:56:42.090Z,2.30
2018-02-23T14:59:10.304Z,2.30
2018-02-23T15:01:37.765Z,2.20
2018-02-23T15:04:05.228Z,2.20
2018-02-23T15:06:32.650Z,2.20
2018-02-23T15:09:00.876Z,2.20
2018-02-23T15:11:28.320Z,2.20
2018-02-23T15:13:55.753Z,2.20
2018-02-23T15:16:23.976Z,2.20
2018-02-23T15:18:51.440Z,2.20
2018-02-23T15:21:18.873Z,2.20
2018-02-23T15:23:47.106Z,2.10
2018-02-23T15:26:15.335Z,2.20
2018-02-23T15:28:42.797Z,2.20
2018-02-23T15:31:22.825Z,2.10
2018-02-23T15:33:50.287Z,2.10
2018-02-23T15:36:17.774Z,2.10
2018-02-23T15:38:46.019Z,2.00
2018-02-23T15:41:13.576Z,2.00
2018-02-23T15:43:41.040Z,2.10
2018-02-23T15:46:08.514Z,2.10
2018-02-23T15:48:41.526Z,2.10
2018-02-23T15:51:24.616Z,2.10
2018-02-23T15:53:52.147Z,2.10
2018-02-23T15:56:19.616Z,2.00
2018-02-23T15:58:47.066Z,2.00
2018-02-23T16:01:14.514Z,2.00
2018-02-23T16:03:41.970Z,2.00
2018-02-23T16:06:11.652Z,2.00
2018-02-23T16:08:39.153Z,2.00
2018-02-23T16:11:07.376Z,1.90
2018-02-23T16:13:34.826Z,1.90
2018-02-23T16:16:02.293Z,1.90
2018-02-23T16:18:29.738Z,1.90
2018-02-23T16:20:57.185Z,1.90
2018-02-23T16:23:24.627Z,1.80
2018-02-23T16:25:52.790Z,1.90
2018-02-23T16:28:20.254Z,1.90
2018-02-23T16:30:47.705Z,2.00
2018-02-23T16:33:15.607Z,1.90
2018-02-23T16:35:43.214Z,1.90
2018-02-23T16:38:10.684Z,1.80
2018-02-23T16:40:38.139Z,1.80
2018-02-23T16:43:05.603Z,1.80
2018-02-23T16:45:33.068Z,1.70
2018-02-23T16:48:00.502Z,1.60
2018-02-23T16:50:27.966Z,1.60
2018-02-23T16:52:55.434Z,1.70
2018-02-23T16:55:22.908Z,1.80
2018-02-23T16:57:50.959Z,1.80
2018-02-23T17:00:19.641Z,1.70
2018-02-23T17:02:49.049Z,1.70
2018-02-23T17:05:17.275Z,1.60
2018-02-23T17:07:44.732Z,1.60
2018-02-23T17:10:12.222Z,1.70
2018-02-23T17:12:39.720Z,1.60
2018-02-23T17:15:07.931Z,1.60
2018-02-23T17:17:35.390Z,1.50
2018-02-23T17:20:02.860Z,1.50
2018-02-23T17:22:30.315Z,1.40
2018-02-23T17:24:57.800Z,1.60
2018-02-23T17:27:25.257Z,1.40
2018-02-23T17:29:52.709Z,1.40
2018-02-23T17:32:20.169Z,1.40
2018-02-23T17:34:47.615Z,1.40
2018-02-23T17:37:15.827Z,1.40
2018-02-23T17:39:43.307Z,1.40
2018-02-23T17:42:10.765Z,1.40
2018-02-23T17:44:38.206Z,1.30
2018-02-23T17:47:05.666Z,1.30
2018-02-23T17:49:33.125Z,1.30
2018-02-23T17:52:00.587Z,1.40
2018-02-23T17:54:28.051Z,1.30
2018-02-23T17:56:55.550Z,1.30
2018-02-23T17:59:23.025Z,1.20
2018-02-23T18:01:50.470Z,1.20
2018-02-23T18:04:17.919Z,1.20
2018-02-23T18:06:45.401Z,1.30
2018-02-23T18:09:12.859Z,1.30
2018-02-23T18:11:40.311Z,1.30
2018-02-23T18:14:07.754Z,1.30
2018-02-23T18:16:35.223Z,1.30
2018-02-23T18:19:02.681Z,1.20
2018-02-23T18:21:30.143Z,1.20
2018-02-23T18:23:57.599Z,1.30
2018-02-23T18:26:25.052Z,1.20
2018-02-23T18:28:52.506Z,1.20
2018-02-23T18:31:20.727Z,1.20
2018-02-23T18:33:48.195Z,1.20
2018-02-23T18:36:15.630Z,1.10
2018-02-23T18:38:43.075Z,1.10
2018-02-23T18:41:11.288Z,1.10
2018-02-23T18:43:38.764Z,1.20
2018-02-23T18:46:06.223Z,1.10
2018-02-23T18:48:33.680Z,1.10
2018-02-23T18:51:01.139Z,1.00
2018-02-23T18:53:28.602Z,1.00
2018-02-23T18:55:56.092Z,1.00
2018-02-23T18:58:23.548Z,1.00
2018-02-23T19:00:51.083Z,0.90
2018-02-23T19:03:18.558Z,0.90
2018-02-23T19:05:46.033Z,0.90
2018-02-23T19:08:13.491Z,0.90
2018-02-23T19:10:40.951Z,0.90
2018-02-23T19:13:08.395Z,0.90
2018-02-23T19:15:36.104Z,0.80
2018-02-23T19:18:03.634Z,0.80
2018-02-23T19:20:31.105Z,0.80
2018-02-23T19:22:58.569Z,0.80
2018-02-23T19:25:26.049Z,0.90
2018-02-23T19:27:53.524Z,0.70
2018-02-23T19:30:21.004Z,0.80
2018-02-23T19:32:48.444Z,0.70
2018-02-23T19:35:15.878Z,0.70
2018-02-23T19:37:43.350Z,0.70
2018-02-23T19:40:10.807Z,0.70
2018-02-23T19:42:38.264Z,0.80
2018-02-23T19:45:05.715Z,0.60
2018-02-23T19:47:33.178Z,0.50
2018-02-23T19:50:00.626Z,0.60
2018-02-23T19:52:28.080Z,0.60
2018-02-23T19:54:56.307Z,0.50
2018-02-23T19:57:23.862Z,0.40
2018-02-23T19:59:51.301Z,0.50
2018-02-23T20:02:18.760Z,0.40
2018-02-23T20:04:46.239Z,0.40
2018-02-23T20:07:13.701Z,0.30
2018-02-23T20:09:41.159Z,0.30
2018-02-23T20:12:08.622Z,0.40
2018-02-23T20:14:36.074Z,0.40
2018-02-23T20:17:03.520Z,0.30
2018-02-23T20:19:31.756Z,0.30
2018-02-23T20:21:59.195Z,0.30
2018-02-23T20:24:26.647Z,0.30
2018-02-23T20:26:54.086Z,0.30
2018-02-23T20:29:22.317Z,0.20
2018-02-23T20:31:49.790Z,0.20
2018-02-23T20:34:17.208Z,0.20
2018-02-23T20:36:44.826Z,0.20
2018-02-23T20:39:12.266Z,0.20
2018-02-23T20:41:39.722Z,0.20
2018-02-23T20:44:07.179Z,0.20
2018-02-23T20:46:34.622Z,0.20
2018-02-23T20:49:02.099Z,0.00
2018-02-23T20:51:29.603Z,0.10
2018-02-23T20:53:57.033Z,0.10
2018-02-23T20:56:24.505Z,0.00
2018-02-23T20:58:51.941Z,0.00
2018-02-23T21:01:19.432Z,0.00
2018-02-23T21:03:46.884Z,0.00
2018-02-23T21:06:14.352Z,-0.10
2018-02-23T21:08:41.787Z,-0.20
2018-02-23T21:11:09.282Z,-0.10
2018-02-23T21:13:36.767Z,-0.10
2018-02-23T21:16:04.227Z,-0.10
2018-02-23T21:18:31.735Z,-0.20
2018-02-23T21:20:59.966Z,-0.20
2018-02-23T21:23:27.423Z,-0.20
2018-02-23T21:25:54.895Z,-0.30
2018-02-23T21:28:22.360Z,-0.20
2018-02-23T21:30:49.850Z,-0.30
2018-02-23T21:33:18.089Z,-0.30
2018-02-23T21:35:45.572Z,-0.30
2018-02-23T21:38:13.023Z,-0.30
2018-02-23T21:40:41.256Z,-0.30
2018-02-23T21:43:09.611Z,-0.40
2018-02-23T21:45:37.059Z,-0.40
2018-02-23T21:48:04.519Z,-0.40
2018-02-23T21:50:31.964Z,-0.40
2018-02-23T21:53:00.352Z,-0.40
2018-02-23T21:55:27.830Z,-0.50
2018-02-23T21:57:55.329Z,-0.50
2018-02-23T22:00:23.537Z,-0.50
2018-02-23T22:02:51.017Z,-0.50
2018-02-23T22:05:18.461Z,-0.50
2018-02-23T22:07:45.925Z,-0.50
2018-02-23T22:10:13.415Z,-0.70
2018-02-23T22:12:40.871Z,-0.60
2018-02-23T22:15:08.332Z,-0.60
2018-02-23T22:17:35.778Z,-0.60
2018-02-23T22:20:03.258Z,-0.70
2018-02-23T22:22:30.724Z,-0.70
2018-02-23T22:24:58.189Z,-0.70
2018-02-23T22:27:25.669Z,-0.60
2018-02-23T22:29:53.103Z,-0.70
2018-02-23T22:32:20.562Z,-0.80
2018-02-23T22:34:48.016Z,-0.70
2018-02-23T22:37:15.475Z,-0.70
2018-02-23T22:39:42.950Z,-0.80
2018-02-23T22:42:10.496Z,-0.80
2018-02-23T22:44:37.944Z,-0.80
2018-02-23T22:47:06.145Z,-0.80
2018-02-23T22:49:33.613Z,-0.80
2018-02-23T22:52:01.067Z,-0.80
2018-02-23T22:54:28.546Z,-0.80
2018-02-23T22:56:55.982Z,-0.80
2018-02-23T22:59:24.240Z,-0.90
2018-02-23T23:01:51.690Z,-0.80
2018-02-23T23:04:19.139Z,-0.80
2018-02-23T23:06:47.366Z,-0.80
2018-02-23T23:09:14.822Z,-0.80
2018-02-23T23:11:43.059Z,-0.90
2018-02-23T23:14:10.575Z,-0.90
2018-02-23T23:16:38.040Z,-0.80
2018-02-23T23:19:05.520Z,-0.80
2018-02-23T23:21:32.983Z,-0.90
2018-02-23T23:24:00.443Z,-0.90
2018-02-23T23:26:27.902Z,-0.80
2018-02-23T23:28:55.361Z,-1.00
2018-02-23T23:31:22.832Z,-1.00
2018-02-23T23:33:50.339Z,-1.00
2018-02-23T23:36:17.842Z,-1.10
2018-02-23T23:38:45.531Z,-1.10
2018-02-23T23:41:13.001Z,-1.10
2018-02-23T23:43:40.458Z,-1.00
2018-02-23T23:46:07.931Z,-1.10
2018-02-23T23:48:35.418Z,-1.00
2018-02-23T23:51:02.873Z,-1.10
2018-02-23T23:53:30.337Z,-1.10
2018-02-23T23:55:57.799Z,-1.10
2018-02-23T23:58:25.248Z,-0.90
